Paddockwood, Canada
Current Conditions -  °F | °C
As of 6:00 AM on Saturday 20 Dec 2014 (Local Time) from CYPA Reporting Station
Haze Haze  
Wind Chill:   Ceiling: 300
Heat Index: 16°   Visibility: 4mi
Dew Point: 14°   Wind: 13mph
Humidity: 93%   Direction: 110°ESE
Pressure: 29.81"   Gusts: NA
Location:  53.5°N, 105.57°W
Report Text: CYPA 201200Z 11011KT 4SM BR OVC003 M09/M10 A2981 RMK ST8 SNW CVR/MUCH LOOSE SLP128
Loading
Personal Weather Stations






























Interactive Weather Map New forecast layout! Learn more

10-Day Weather Forecast

Advertisements
Track Severe Weather on mobile